sensor_id;sensor_type;location;lat;lon;timestamp;P1;durP1;ratioP1;P2;durP2;ratioP2
58615;SDS011;44385;51.992;4.206;2023-07-13T00:00:20;13.82;;;3.47;;
58615;SDS011;44385;51.992;4.206;2023-07-13T00:02:47;16.60;;;3.53;;
58615;SDS011;44385;51.992;4.206;2023-07-13T00:05:13;12.98;;;3.50;;
58615;SDS011;44385;51.992;4.206;2023-07-13T00:07:40;11.15;;;2.67;;
58615;SDS011;44385;51.992;4.206;2023-07-13T00:10:08;8.82;;;2.00;;
58615;SDS011;44385;51.992;4.206;2023-07-13T00:12:35;6.03;;;1.90;;
58615;SDS011;44385;51.992;4.206;2023-07-13T00:15:03;12.32;;;1.80;;
58615;SDS011;44385;51.992;4.206;2023-07-13T00:17:31;8.10;;;2.75;;
58615;SDS011;44385;51.992;4.206;2023-07-13T00:19:57;7.45;;;2.78;;
58615;SDS011;44385;51.992;4.206;2023-07-13T00:22:24;7.13;;;2.50;;
58615;SDS011;44385;51.992;4.206;2023-07-13T00:24:51;15.13;;;3.35;;
58615;SDS011;44385;51.992;4.206;2023-07-13T00:27:19;9.55;;;1.92;;
58615;SDS011;44385;51.992;4.206;2023-07-13T00:29:45;8.98;;;2.30;;
58615;SDS011;44385;51.992;4.206;2023-07-13T00:32:14;12.10;;;3.08;;
58615;SDS011;44385;51.992;4.206;2023-07-13T00:34:45;9.38;;;2.35;;
58615;SDS011;44385;51.992;4.206;2023-07-13T00:37:14;11.20;;;3.17;;
58615;SDS011;44385;51.992;4.206;2023-07-13T00:39:40;6.70;;;1.50;;
58615;SDS011;44385;51.992;4.206;2023-07-13T00:42:07;9.68;;;2.05;;
58615;SDS011;44385;51.992;4.206;2023-07-13T00:44:33;6.63;;;2.45;;
58615;SDS011;44385;51.992;4.206;2023-07-13T00:46:59;8.82;;;1.88;;
58615;SDS011;44385;51.992;4.206;2023-07-13T00:49:27;4.55;;;2.55;;
58615;SDS011;44385;51.992;4.206;2023-07-13T00:51:56;4.72;;;1.55;;
58615;SDS011;44385;51.992;4.206;2023-07-13T00:54:25;4.40;;;1.35;;
58615;SDS011;44385;51.992;4.206;2023-07-13T00:56:53;3.60;;;1.25;;
58615;SDS011;44385;51.992;4.206;2023-07-13T00:59:20;3.60;;;1.00;;
58615;SDS011;44385;51.992;4.206;2023-07-13T01:01:46;4.25;;;1.55;;
58615;SDS011;44385;51.992;4.206;2023-07-13T01:04:13;3.70;;;1.25;;
58615;SDS011;44385;51.992;4.206;2023-07-13T01:06:40;4.60;;;1.45;;
58615;SDS011;44385;51.992;4.206;2023-07-13T01:09:10;5.68;;;1.60;;
58615;SDS011;44385;51.992;4.206;2023-07-13T01:11:41;8.85;;;2.05;;
58615;SDS011;44385;51.992;4.206;2023-07-13T01:14:10;3.10;;;1.60;;
58615;SDS011;44385;51.992;4.206;2023-07-13T01:16:37;4.55;;;1.52;;
58615;SDS011;44385;51.992;4.206;2023-07-13T01:19:06;4.47;;;1.70;;
58615;SDS011;44385;51.992;4.206;2023-07-13T01:21:38;5.22;;;1.30;;
58615;SDS011;44385;51.992;4.206;2023-07-13T01:24:08;5.72;;;1.58;;
58615;SDS011;44385;51.992;4.206;2023-07-13T01:26:34;3.35;;;1.77;;
58615;SDS011;44385;51.992;4.206;2023-07-13T01:29:01;3.80;;;1.60;;
58615;SDS011;44385;51.992;4.206;2023-07-13T01:31:27;4.45;;;1.50;;
58615;SDS011;44385;51.992;4.206;2023-07-13T01:33:54;2.38;;;1.40;;
58615;SDS011;44385;51.992;4.206;2023-07-13T01:36:22;6.07;;;2.00;;
58615;SDS011;44385;51.992;4.206;2023-07-13T01:38:50;4.32;;;1.65;;
58615;SDS011;44385;51.992;4.206;2023-07-13T01:41:16;4.80;;;1.60;;
58615;SDS011;44385;51.992;4.206;2023-07-13T01:43:43;7.00;;;1.90;;
58615;SDS011;44385;51.992;4.206;2023-07-13T01:46:09;6.25;;;2.05;;
58615;SDS011;44385;51.992;4.206;2023-07-13T01:48:35;7.10;;;1.90;;
58615;SDS011;44385;51.992;4.206;2023-07-13T01:51:02;5.70;;;1.90;;
58615;SDS011;44385;51.992;4.206;2023-07-13T01:53:31;8.25;;;2.58;;
58615;SDS011;44385;51.992;4.206;2023-07-13T01:55:59;8.77;;;3.03;;
58615;SDS011;44385;51.992;4.206;2023-07-13T01:58:26;9.38;;;2.58;;
58615;SDS011;44385;51.992;4.206;2023-07-13T02:00:52;20.65;;;3.72;;
58615;SDS011;44385;51.992;4.206;2023-07-13T02:03:19;10.75;;;2.80;;
58615;SDS011;44385;51.992;4.206;2023-07-13T02:05:45;9.35;;;3.05;;
58615;SDS011;44385;51.992;4.206;2023-07-13T02:08:12;13.05;;;3.63;;
58615;SDS011;44385;51.992;4.206;2023-07-13T02:10:38;14.68;;;3.47;;
58615;SDS011;44385;51.992;4.206;2023-07-13T02:13:07;11.48;;;3.47;;
58615;SDS011;44385;51.992;4.206;2023-07-13T02:15:33;13.18;;;3.40;;
58615;SDS011;44385;51.992;4.206;2023-07-13T02:18:00;9.32;;;2.72;;
58615;SDS011;44385;51.992;4.206;2023-07-13T02:20:26;12.68;;;3.67;;
58615;SDS011;44385;51.992;4.206;2023-07-13T02:22:52;14.65;;;3.42;;
58615;SDS011;44385;51.992;4.206;2023-07-13T02:25:19;12.88;;;3.85;;
58615;SDS011;44385;51.992;4.206;2023-07-13T02:27:45;13.52;;;3.75;;
58615;SDS011;44385;51.992;4.206;2023-07-13T02:30:13;9.65;;;3.28;;
58615;SDS011;44385;51.992;4.206;2023-07-13T02:32:40;16.08;;;4.10;;
58615;SDS011;44385;51.992;4.206;2023-07-13T02:35:06;11.55;;;3.30;;
58615;SDS011;44385;51.992;4.206;2023-07-13T02:37:32;10.82;;;3.22;;
58615;SDS011;44385;51.992;4.206;2023-07-13T02:39:59;15.50;;;4.38;;
58615;SDS011;44385;51.992;4.206;2023-07-13T02:42:25;15.57;;;3.25;;
58615;SDS011;44385;51.992;4.206;2023-07-13T02:44:52;13.05;;;3.75;;
58615;SDS011;44385;51.992;4.206;2023-07-13T02:47:20;10.07;;;3.50;;
58615;SDS011;44385;51.992;4.206;2023-07-13T02:49:46;10.68;;;3.53;;
58615;SDS011;44385;51.992;4.206;2023-07-13T02:52:12;10.00;;;3.03;;
58615;SDS011;44385;51.992;4.206;2023-07-13T02:54:39;8.38;;;3.20;;
58615;SDS011;44385;51.992;4.206;2023-07-13T02:57:06;12.82;;;3.55;;
58615;SDS011;44385;51.992;4.206;2023-07-13T02:59:32;10.82;;;3.20;;
58615;SDS011;44385;51.992;4.206;2023-07-13T03:02:00;10.38;;;3.30;;
58615;SDS011;44385;51.992;4.206;2023-07-13T03:04:27;15.32;;;3.67;;
58615;SDS011;44385;51.992;4.206;2023-07-13T03:06:54;13.13;;;3.80;;
58615;SDS011;44385;51.992;4.206;2023-07-13T03:09:23;12.52;;;3.85;;
58615;SDS011;44385;51.992;4.206;2023-07-13T03:11:51;9.80;;;3.28;;
58615;SDS011;44385;51.992;4.206;2023-07-13T03:14:18;7.20;;;2.88;;
58615;SDS011;44385;51.992;4.206;2023-07-13T03:16:44;14.90;;;3.50;;
58615;SDS011;44385;51.992;4.206;2023-07-13T03:19:11;10.30;;;3.30;;
58615;SDS011;44385;51.992;4.206;2023-07-13T03:21:42;19.45;;;3.65;;
58615;SDS011;44385;51.992;4.206;2023-07-13T03:24:08;12.25;;;3.10;;
58615;SDS011;44385;51.992;4.206;2023-07-13T03:26:35;9.43;;;3.33;;
58615;SDS011;44385;51.992;4.206;2023-07-13T03:29:01;8.15;;;2.92;;
58615;SDS011;44385;51.992;4.206;2023-07-13T03:31:28;9.98;;;3.20;;
58615;SDS011;44385;51.992;4.206;2023-07-13T03:33:56;9.07;;;3.17;;
58615;SDS011;44385;51.992;4.206;2023-07-13T03:36:24;9.75;;;3.70;;
58615;SDS011;44385;51.992;4.206;2023-07-13T03:38:54;8.52;;;3.10;;
58615;SDS011;44385;51.992;4.206;2023-07-13T03:41:21;10.60;;;3.28;;
58615;SDS011;44385;51.992;4.206;2023-07-13T03:43:47;6.20;;;3.10;;
58615;SDS011;44385;51.992;4.206;2023-07-13T03:46:14;12.20;;;2.90;;
58615;SDS011;44385;51.992;4.206;2023-07-13T03:48:40;9.30;;;3.15;;
58615;SDS011;44385;51.992;4.206;2023-07-13T03:51:09;10.63;;;3.35;;
58615;SDS011;44385;51.992;4.206;2023-07-13T03:53:37;11.00;;;3.30;;
58615;SDS011;44385;51.992;4.206;2023-07-13T03:58:33;9.98;;;2.95;;
58615;SDS011;44385;51.992;4.206;2023-07-13T04:01:00;13.50;;;3.67;;
58615;SDS011;44385;51.992;4.206;2023-07-13T04:03:27;6.60;;;2.78;;
58615;SDS011;44385;51.992;4.206;2023-07-13T04:05:56;8.73;;;2.95;;
58615;SDS011;44385;51.992;4.206;2023-07-13T04:08:24;9.83;;;2.47;;
58615;SDS011;44385;51.992;4.206;2023-07-13T04:10:51;8.82;;;2.40;;
58615;SDS011;44385;51.992;4.206;2023-07-13T04:13:17;8.48;;;3.17;;
58615;SDS011;44385;51.992;4.206;2023-07-13T04:15:45;10.13;;;3.17;;
58615;SDS011;44385;51.992;4.206;2023-07-13T04:18:14;8.05;;;3.15;;
58615;SDS011;44385;51.992;4.206;2023-07-13T04:20:40;8.18;;;2.97;;
58615;SDS011;44385;51.992;4.206;2023-07-13T04:23:07;8.02;;;2.78;;
58615;SDS011;44385;51.992;4.206;2023-07-13T04:25:33;11.55;;;3.38;;
58615;SDS011;44385;51.992;4.206;2023-07-13T04:28:00;7.28;;;3.03;;
58615;SDS011;44385;51.992;4.206;2023-07-13T04:30:26;11.52;;;2.90;;
58615;SDS011;44385;51.992;4.206;2023-07-13T04:32:54;9.57;;;3.03;;
58615;SDS011;44385;51.992;4.206;2023-07-13T04:35:21;8.38;;;2.70;;
58615;SDS011;44385;51.992;4.206;2023-07-13T04:37:47;8.55;;;2.60;;
58615;SDS011;44385;51.992;4.206;2023-07-13T04:40:15;5.53;;;2.25;;
58615;SDS011;44385;51.992;4.206;2023-07-13T04:42:42;4.57;;;2.58;;
58615;SDS011;44385;51.992;4.206;2023-07-13T04:45:09;6.70;;;2.65;;
58615;SDS011;44385;51.992;4.206;2023-07-13T04:47:35;7.32;;;2.50;;
58615;SDS011;44385;51.992;4.206;2023-07-13T04:50:03;9.20;;;2.90;;
58615;SDS011;44385;51.992;4.206;2023-07-13T04:52:30;7.50;;;2.22;;
58615;SDS011;44385;51.992;4.206;2023-07-13T04:54:58;8.07;;;2.78;;
58615;SDS011;44385;51.992;4.206;2023-07-13T04:57:24;4.57;;;2.30;;
58615;SDS011;44385;51.992;4.206;2023-07-13T04:59:51;7.20;;;2.40;;
58615;SDS011;44385;51.992;4.206;2023-07-13T05:02:17;6.80;;;2.70;;
58615;SDS011;44385;51.992;4.206;2023-07-13T05:04:45;5.43;;;2.35;;
58615;SDS011;44385;51.992;4.206;2023-07-13T05:07:13;7.53;;;2.40;;
58615;SDS011;44385;51.992;4.206;2023-07-13T05:09:40;8.63;;;2.78;;
58615;SDS011;44385;51.992;4.206;2023-07-13T05:12:08;7.10;;;2.45;;
58615;SDS011;44385;51.992;4.206;2023-07-13T05:14:34;8.35;;;2.53;;
58615;SDS011;44385;51.992;4.206;2023-07-13T05:17:01;5.50;;;2.30;;
58615;SDS011;44385;51.992;4.206;2023-07-13T05:19:27;8.02;;;2.90;;
58615;SDS011;44385;51.992;4.206;2023-07-13T05:21:53;10.80;;;2.85;;
58615;SDS011;44385;51.992;4.206;2023-07-13T05:24:21;5.88;;;2.58;;
58615;SDS011;44385;51.992;4.206;2023-07-13T05:26:48;6.82;;;2.47;;
58615;SDS011;44385;51.992;4.206;2023-07-13T05:29:14;7.78;;;2.47;;
58615;SDS011;44385;51.992;4.206;2023-07-13T05:31:40;9.07;;;3.03;;
58615;SDS011;44385;51.992;4.206;2023-07-13T05:34:07;9.00;;;2.83;;
58615;SDS011;44385;51.992;4.206;2023-07-13T05:36:34;7.47;;;2.53;;
58615;SDS011;44385;51.992;4.206;2023-07-13T05:39:00;8.13;;;2.42;;
58615;SDS011;44385;51.992;4.206;2023-07-13T05:41:28;5.57;;;2.60;;
58615;SDS011;44385;51.992;4.206;2023-07-13T05:43:57;7.28;;;2.42;;
58615;SDS011;44385;51.992;4.206;2023-07-13T05:46:24;6.55;;;2.58;;
58615;SDS011;44385;51.992;4.206;2023-07-13T05:48:50;7.35;;;2.28;;
58615;SDS011;44385;51.992;4.206;2023-07-13T05:51:17;7.90;;;2.92;;
58615;SDS011;44385;51.992;4.206;2023-07-13T05:53:43;9.68;;;2.85;;
58615;SDS011;44385;51.992;4.206;2023-07-13T05:56:09;6.75;;;2.80;;
58615;SDS011;44385;51.992;4.206;2023-07-13T05:58:38;7.80;;;2.47;;
58615;SDS011;44385;51.992;4.206;2023-07-13T06:01:05;8.32;;;2.53;;
58615;SDS011;44385;51.992;4.206;2023-07-13T06:03:32;8.85;;;2.88;;
58615;SDS011;44385;51.992;4.206;2023-07-13T06:05:59;6.68;;;3.05;;
58615;SDS011;44385;51.992;4.206;2023-07-13T06:08:26;8.52;;;2.75;;
58615;SDS011;44385;51.992;4.206;2023-07-13T06:10:52;6.20;;;2.88;;
58615;SDS011;44385;51.992;4.206;2023-07-13T06:13:19;9.25;;;2.95;;
58615;SDS011;44385;51.992;4.206;2023-07-13T06:15:48;14.85;;;3.13;;
58615;SDS011;44385;51.992;4.206;2023-07-13T06:18:15;10.45;;;2.45;;
58615;SDS011;44385;51.992;4.206;2023-07-13T06:20:44;10.45;;;3.15;;
58615;SDS011;44385;51.992;4.206;2023-07-13T06:23:11;7.82;;;2.75;;
58615;SDS011;44385;51.992;4.206;2023-07-13T06:25:40;6.20;;;2.80;;
58615;SDS011;44385;51.992;4.206;2023-07-13T06:28:07;11.43;;;2.83;;
58615;SDS011;44385;51.992;4.206;2023-07-13T06:30:33;8.77;;;2.95;;
58615;SDS011;44385;51.992;4.206;2023-07-13T06:33:01;8.73;;;3.55;;
58615;SDS011;44385;51.992;4.206;2023-07-13T06:35:28;9.52;;;2.67;;
58615;SDS011;44385;51.992;4.206;2023-07-13T06:37:58;7.03;;;3.58;;
58615;SDS011;44385;51.992;4.206;2023-07-13T06:40:25;9.48;;;2.90;;
58615;SDS011;44385;51.992;4.206;2023-07-13T06:42:53;6.85;;;3.08;;
58615;SDS011;44385;51.992;4.206;2023-07-13T06:45:20;7.43;;;2.38;;
58615;SDS011;44385;51.992;4.206;2023-07-13T06:47:47;5.38;;;2.70;;
58615;SDS011;44385;51.992;4.206;2023-07-13T06:50:16;7.03;;;3.33;;
58615;SDS011;44385;51.992;4.206;2023-07-13T06:52:42;8.25;;;3.05;;
58615;SDS011;44385;51.992;4.206;2023-07-13T06:55:09;9.60;;;3.70;;
58615;SDS011;44385;51.992;4.206;2023-07-13T06:57:35;10.48;;;3.63;;
58615;SDS011;44385;51.992;4.206;2023-07-13T07:00:01;11.93;;;3.33;;
58615;SDS011;44385;51.992;4.206;2023-07-13T07:02:28;5.70;;;2.60;;
58615;SDS011;44385;51.992;4.206;2023-07-13T07:04:55;6.57;;;2.70;;
58615;SDS011;44385;51.992;4.206;2023-07-13T07:07:24;7.38;;;2.95;;
58615;SDS011;44385;51.992;4.206;2023-07-13T07:09:51;11.05;;;3.78;;
58615;SDS011;44385;51.992;4.206;2023-07-13T07:12:17;7.35;;;3.28;;
58615;SDS011;44385;51.992;4.206;2023-07-13T07:14:44;4.22;;;2.28;;
58615;SDS011;44385;51.992;4.206;2023-07-13T07:17:10;6.60;;;2.67;;
58615;SDS011;44385;51.992;4.206;2023-07-13T07:19:40;9.30;;;3.13;;
58615;SDS011;44385;51.992;4.206;2023-07-13T07:24:34;7.32;;;2.85;;
58615;SDS011;44385;51.992;4.206;2023-07-13T07:27:00;7.45;;;2.78;;
58615;SDS011;44385;51.992;4.206;2023-07-13T07:29:27;7.68;;;3.10;;
58615;SDS011;44385;51.992;4.206;2023-07-13T07:31:53;10.10;;;3.03;;
58615;SDS011;44385;51.992;4.206;2023-07-13T07:34:20;6.72;;;2.70;;
58615;SDS011;44385;51.992;4.206;2023-07-13T07:36:46;6.68;;;2.83;;
58615;SDS011;44385;51.992;4.206;2023-07-13T07:39:13;8.77;;;2.80;;
58615;SDS011;44385;51.992;4.206;2023-07-13T07:41:40;9.68;;;2.75;;
58615;SDS011;44385;51.992;4.206;2023-07-13T07:44:08;7.88;;;2.70;;
58615;SDS011;44385;51.992;4.206;2023-07-13T07:46:35;7.18;;;3.00;;
58615;SDS011;44385;51.992;4.206;2023-07-13T07:49:01;6.88;;;2.92;;
58615;SDS011;44385;51.992;4.206;2023-07-13T07:51:27;7.15;;;2.75;;
58615;SDS011;44385;51.992;4.206;2023-07-13T07:53:58;8.10;;;2.78;;
58615;SDS011;44385;51.992;4.206;2023-07-13T07:56:24;6.45;;;2.63;;
58615;SDS011;44385;51.992;4.206;2023-07-13T07:58:52;11.18;;;2.80;;
58615;SDS011;44385;51.992;4.206;2023-07-13T08:01:19;6.80;;;3.22;;
58615;SDS011;44385;51.992;4.206;2023-07-13T08:03:45;9.85;;;2.85;;
58615;SDS011;44385;51.992;4.206;2023-07-13T08:06:15;8.02;;;2.83;;
58615;SDS011;44385;51.992;4.206;2023-07-13T08:08:44;6.05;;;2.95;;
58615;SDS011;44385;51.992;4.206;2023-07-13T08:11:11;6.72;;;2.92;;
58615;SDS011;44385;51.992;4.206;2023-07-13T08:13:38;5.35;;;2.90;;
58615;SDS011;44385;51.992;4.206;2023-07-13T08:16:06;7.47;;;3.10;;
58615;SDS011;44385;51.992;4.206;2023-07-13T08:18:33;8.93;;;3.30;;
58615;SDS011;44385;51.992;4.206;2023-07-13T08:21:02;9.52;;;2.92;;
58615;SDS011;44385;51.992;4.206;2023-07-13T08:23:28;8.15;;;3.15;;
58615;SDS011;44385;51.992;4.206;2023-07-13T08:25:57;6.30;;;3.00;;
58615;SDS011;44385;51.992;4.206;2023-07-13T08:28:23;6.45;;;2.88;;
58615;SDS011;44385;51.992;4.206;2023-07-13T08:30:50;6.40;;;2.95;;
58615;SDS011;44385;51.992;4.206;2023-07-13T08:33:18;12.15;;;3.33;;
58615;SDS011;44385;51.992;4.206;2023-07-13T08:35:45;7.70;;;2.72;;
58615;SDS011;44385;51.992;4.206;2023-07-13T08:38:12;4.75;;;2.50;;
58615;SDS011;44385;51.992;4.206;2023-07-13T08:40:39;8.55;;;3.20;;
58615;SDS011;44385;51.992;4.206;2023-07-13T08:43:06;10.18;;;3.08;;
58615;SDS011;44385;51.992;4.206;2023-07-13T08:45:38;7.47;;;2.85;;
58615;SDS011;44385;51.992;4.206;2023-07-13T08:48:10;8.20;;;3.58;;
58615;SDS011;44385;51.992;4.206;2023-07-13T08:50:41;6.63;;;3.15;;
58615;SDS011;44385;51.992;4.206;2023-07-13T08:53:12;11.63;;;3.63;;
58615;SDS011;44385;51.992;4.206;2023-07-13T08:55:40;8.00;;;2.97;;
58615;SDS011;44385;51.992;4.206;2023-07-13T08:58:09;6.72;;;3.00;;
58615;SDS011;44385;51.992;4.206;2023-07-13T09:00:41;9.20;;;3.22;;
58615;SDS011;44385;51.992;4.206;2023-07-13T09:03:12;6.85;;;2.90;;
58615;SDS011;44385;51.992;4.206;2023-07-13T09:05:44;5.38;;;2.83;;
58615;SDS011;44385;51.992;4.206;2023-07-13T09:08:18;8.02;;;3.40;;
58615;SDS011;44385;51.992;4.206;2023-07-13T09:10:52;6.43;;;3.15;;
58615;SDS011;44385;51.992;4.206;2023-07-13T09:13:22;6.60;;;2.92;;
58615;SDS011;44385;51.992;4.206;2023-07-13T09:15:50;6.45;;;2.78;;
58615;SDS011;44385;51.992;4.206;2023-07-13T09:18:19;6.38;;;3.03;;
58615;SDS011;44385;51.992;4.206;2023-07-13T09:20:50;4.68;;;2.50;;
58615;SDS011;44385;51.992;4.206;2023-07-13T09:23:20;7.50;;;2.88;;
58615;SDS011;44385;51.992;4.206;2023-07-13T09:25:47;8.47;;;3.03;;
58615;SDS011;44385;51.992;4.206;2023-07-13T09:28:17;8.63;;;3.10;;
58615;SDS011;44385;51.992;4.206;2023-07-13T09:30:46;5.88;;;3.22;;
58615;SDS011;44385;51.992;4.206;2023-07-13T09:33:16;6.00;;;3.17;;
58615;SDS011;44385;51.992;4.206;2023-07-13T09:35:43;5.97;;;3.00;;
58615;SDS011;44385;51.992;4.206;2023-07-13T09:38:14;9.40;;;3.50;;
58615;SDS011;44385;51.992;4.206;2023-07-13T09:40:49;9.85;;;2.65;;
58615;SDS011;44385;51.992;4.206;2023-07-13T09:43:18;7.32;;;2.92;;
58615;SDS011;44385;51.992;4.206;2023-07-13T09:45:45;6.03;;;2.75;;
58615;SDS011;44385;51.992;4.206;2023-07-13T09:48:13;6.65;;;3.17;;
58615;SDS011;44385;51.992;4.206;2023-07-13T09:50:40;6.38;;;3.92;;
58615;SDS011;44385;51.992;4.206;2023-07-13T09:53:11;5.53;;;2.63;;
58615;SDS011;44385;51.992;4.206;2023-07-13T09:55:40;6.95;;;2.75;;
58615;SDS011;44385;51.992;4.206;2023-07-13T10:00:35;6.95;;;2.72;;
58615;SDS011;44385;51.992;4.206;2023-07-13T10:03:02;10.02;;;2.97;;
58615;SDS011;44385;51.992;4.206;2023-07-13T10:05:39;7.22;;;3.25;;
58615;SDS011;44385;51.992;4.206;2023-07-13T10:08:05;6.82;;;2.55;;
58615;SDS011;44385;51.992;4.206;2023-07-13T10:10:33;6.82;;;3.00;;
58615;SDS011;44385;51.992;4.206;2023-07-13T10:13:02;9.10;;;3.08;;
58615;SDS011;44385;51.992;4.206;2023-07-13T10:15:30;8.95;;;3.05;;
58615;SDS011;44385;51.992;4.206;2023-07-13T10:17:57;6.55;;;3.22;;
58615;SDS011;44385;51.992;4.206;2023-07-13T10:20:24;5.03;;;2.90;;
58615;SDS011;44385;51.992;4.206;2023-07-13T10:22:53;7.13;;;2.75;;
58615;SDS011;44385;51.992;4.206;2023-07-13T10:25:21;5.07;;;2.88;;
58615;SDS011;44385;51.992;4.206;2023-07-13T10:27:50;4.33;;;2.60;;
58615;SDS011;44385;51.992;4.206;2023-07-13T10:30:19;4.22;;;2.53;;
58615;SDS011;44385;51.992;4.206;2023-07-13T10:32:47;4.45;;;2.30;;
58615;SDS011;44385;51.992;4.206;2023-07-13T10:35:14;5.15;;;2.58;;
58615;SDS011;44385;51.992;4.206;2023-07-13T10:37:44;8.05;;;2.53;;
58615;SDS011;44385;51.992;4.206;2023-07-13T10:40:12;6.67;;;2.93;;
58615;SDS011;44385;51.992;4.206;2023-07-13T10:42:40;6.32;;;2.67;;
58615;SDS011;44385;51.992;4.206;2023-07-13T10:45:12;7.85;;;2.67;;
58615;SDS011;44385;51.992;4.206;2023-07-13T10:47:40;6.55;;;3.03;;
58615;SDS011;44385;51.992;4.206;2023-07-13T10:50:08;6.00;;;3.08;;
58615;SDS011;44385;51.992;4.206;2023-07-13T10:52:40;5.93;;;4.25;;
58615;SDS011;44385;51.992;4.206;2023-07-13T10:55:10;7.20;;;3.00;;
58615;SDS011;44385;51.992;4.206;2023-07-13T10:57:59;6.82;;;3.15;;
58615;SDS011;44385;51.992;4.206;2023-07-13T11:00:26;8.70;;;3.53;;
58615;SDS011;44385;51.992;4.206;2023-07-13T11:02:57;7.15;;;3.17;;
58615;SDS011;44385;51.992;4.206;2023-07-13T11:05:26;5.53;;;3.20;;
58615;SDS011;44385;51.992;4.206;2023-07-13T11:07:55;7.63;;;3.42;;
58615;SDS011;44385;51.992;4.206;2023-07-13T11:15:54;7.28;;;2.88;;
58615;SDS011;44385;51.992;4.206;2023-07-13T11:18:22;6.05;;;3.08;;
58615;SDS011;44385;51.992;4.206;2023-07-13T11:20:50;3.83;;;3.05;;
58615;SDS011;44385;51.992;4.206;2023-07-13T11:23:27;7.90;;;3.80;;
58615;SDS011;44385;51.992;4.206;2023-07-13T11:25:55;8.83;;;3.23;;
58615;SDS011;44385;51.992;4.206;2023-07-13T11:28:23;6.85;;;3.15;;
58615;SDS011;44385;51.992;4.206;2023-07-13T11:30:50;4.82;;;2.88;;
58615;SDS011;44385;51.992;4.206;2023-07-13T11:33:29;7.75;;;3.97;;
58615;SDS011;44385;51.992;4.206;2023-07-13T11:36:00;5.38;;;2.80;;
58615;SDS011;44385;51.992;4.206;2023-07-13T11:38:30;4.07;;;2.30;;
58615;SDS011;44385;51.992;4.206;2023-07-13T11:40:58;7.25;;;2.70;;
58615;SDS011;44385;51.992;4.206;2023-07-13T11:43:28;4.97;;;2.90;;
58615;SDS011;44385;51.992;4.206;2023-07-13T11:45:59;5.65;;;2.80;;
58615;SDS011;44385;51.992;4.206;2023-07-13T11:48:26;6.78;;;2.63;;
58615;SDS011;44385;51.992;4.206;2023-07-13T11:50:56;6.47;;;2.97;;
58615;SDS011;44385;51.992;4.206;2023-07-13T11:53:23;5.93;;;3.05;;
58615;SDS011;44385;51.992;4.206;2023-07-13T11:55:52;6.80;;;2.70;;
58615;SDS011;44385;51.992;4.206;2023-07-13T11:58:20;6.50;;;3.03;;
58615;SDS011;44385;51.992;4.206;2023-07-13T12:00:48;5.35;;;2.72;;
58615;SDS011;44385;51.992;4.206;2023-07-13T12:03:15;4.65;;;2.42;;
58615;SDS011;44385;51.992;4.206;2023-07-13T12:05:56;5.40;;;1.95;;
58615;SDS011;44385;51.992;4.206;2023-07-13T12:08:23;3.85;;;2.15;;
58615;SDS011;44385;51.992;4.206;2023-07-13T12:10:55;5.25;;;2.58;;
58615;SDS011;44385;51.992;4.206;2023-07-13T12:13:22;4.90;;;2.38;;
58615;SDS011;44385;51.992;4.206;2023-07-13T12:15:48;5.10;;;2.13;;
58615;SDS011;44385;51.992;4.206;2023-07-13T12:18:18;6.93;;;2.65;;
58615;SDS011;44385;51.992;4.206;2023-07-13T12:20:45;4.32;;;1.85;;
58615;SDS011;44385;51.992;4.206;2023-07-13T12:23:19;8.25;;;2.53;;
58615;SDS011;44385;51.992;4.206;2023-07-13T12:25:47;5.47;;;2.20;;
58615;SDS011;44385;51.992;4.206;2023-07-13T12:28:22;4.07;;;2.28;;
58615;SDS011;44385;51.992;4.206;2023-07-13T12:30:49;5.25;;;2.85;;
58615;SDS011;44385;51.992;4.206;2023-07-13T12:33:15;5.07;;;2.50;;
58615;SDS011;44385;51.992;4.206;2023-07-13T12:35:44;9.85;;;2.88;;
58615;SDS011;44385;51.992;4.206;2023-07-13T12:38:12;4.20;;;2.08;;
58615;SDS011;44385;51.992;4.206;2023-07-13T12:40:40;5.57;;;2.13;;
58615;SDS011;44385;51.992;4.206;2023-07-13T12:43:10;5.60;;;2.30;;
58615;SDS011;44385;51.992;4.206;2023-07-13T12:45:38;3.70;;;1.92;;
58615;SDS011;44385;51.992;4.206;2023-07-13T12:48:10;3.33;;;1.90;;
58615;SDS011;44385;51.992;4.206;2023-07-13T12:50:40;3.90;;;1.95;;
58615;SDS011;44385;51.992;4.206;2023-07-13T12:53:11;4.78;;;2.20;;
58615;SDS011;44385;51.992;4.206;2023-07-13T12:55:48;4.97;;;2.13;;
58615;SDS011;44385;51.992;4.206;2023-07-13T12:58:16;4.50;;;2.00;;
58615;SDS011;44385;51.992;4.206;2023-07-13T13:03:12;4.97;;;1.80;;
58615;SDS011;44385;51.992;4.206;2023-07-13T13:05:45;3.38;;;2.33;;
58615;SDS011;44385;51.992;4.206;2023-07-13T13:08:12;4.65;;;1.98;;
58615;SDS011;44385;51.992;4.206;2023-07-13T13:10:39;3.65;;;2.10;;
58615;SDS011;44385;51.992;4.206;2023-07-13T13:13:06;2.92;;;1.77;;
58615;SDS011;44385;51.992;4.206;2023-07-13T13:15:33;4.77;;;2.30;;
58615;SDS011;44385;51.992;4.206;2023-07-13T13:18:00;6.40;;;2.33;;
58615;SDS011;44385;51.992;4.206;2023-07-13T13:20:27;4.07;;;1.77;;
58615;SDS011;44385;51.992;4.206;2023-07-13T13:22:53;4.38;;;2.10;;
58615;SDS011;44385;51.992;4.206;2023-07-13T13:25:20;4.97;;;1.92;;
58615;SDS011;44385;51.992;4.206;2023-07-13T13:27:47;4.75;;;1.65;;
58615;SDS011;44385;51.992;4.206;2023-07-13T13:30:16;3.83;;;2.60;;
58615;SDS011;44385;51.992;4.206;2023-07-13T13:35:12;2.47;;;1.42;;
58615;SDS011;44385;51.992;4.206;2023-07-13T13:37:39;3.13;;;1.90;;
58615;SDS011;44385;51.992;4.206;2023-07-13T13:40:13;3.47;;;1.70;;
58615;SDS011;44385;51.992;4.206;2023-07-13T13:42:40;4.03;;;1.63;;
58615;SDS011;44385;51.992;4.206;2023-07-13T13:45:07;4.50;;;1.90;;
58615;SDS011;44385;51.992;4.206;2023-07-13T13:47:35;3.63;;;1.58;;
58615;SDS011;44385;51.992;4.206;2023-07-13T13:50:08;3.95;;;2.15;;
58615;SDS011;44385;51.992;4.206;2023-07-13T13:52:40;3.45;;;1.80;;
58615;SDS011;44385;51.992;4.206;2023-07-13T13:55:11;4.15;;;1.80;;
58615;SDS011;44385;51.992;4.206;2023-07-13T13:57:38;2.50;;;1.83;;
58615;SDS011;44385;51.992;4.206;2023-07-13T14:00:05;3.70;;;1.80;;
58615;SDS011;44385;51.992;4.206;2023-07-13T14:02:32;3.95;;;2.20;;
58615;SDS011;44385;51.992;4.206;2023-07-13T14:05:01;4.63;;;1.90;;
58615;SDS011;44385;51.992;4.206;2023-07-13T14:07:28;5.28;;;1.98;;
58615;SDS011;44385;51.992;4.206;2023-07-13T14:09:56;6.68;;;2.65;;
58615;SDS011;44385;51.992;4.206;2023-07-13T14:12:23;4.90;;;2.47;;
58615;SDS011;44385;51.992;4.206;2023-07-13T14:14:51;4.07;;;2.03;;
58615;SDS011;44385;51.992;4.206;2023-07-13T14:17:18;3.13;;;1.90;;
58615;SDS011;44385;51.992;4.206;2023-07-13T14:22:17;5.75;;;2.42;;
58615;SDS011;44385;51.992;4.206;2023-07-13T14:24:44;5.85;;;2.30;;
58615;SDS011;44385;51.992;4.206;2023-07-13T14:27:10;5.03;;;2.65;;
58615;SDS011;44385;51.992;4.206;2023-07-13T14:29:40;4.22;;;1.90;;
58615;SDS011;44385;51.992;4.206;2023-07-13T14:32:09;4.95;;;2.10;;
58615;SDS011;44385;51.992;4.206;2023-07-13T14:34:35;5.78;;;1.80;;
58615;SDS011;44385;51.992;4.206;2023-07-13T14:37:03;6.03;;;2.33;;
58615;SDS011;44385;51.992;4.206;2023-07-13T14:39:32;5.13;;;2.00;;
58615;SDS011;44385;51.992;4.206;2023-07-13T14:41:58;3.22;;;2.13;;
58615;SDS011;44385;51.992;4.206;2023-07-13T14:44:25;4.60;;;1.60;;
58615;SDS011;44385;51.992;4.206;2023-07-13T14:46:54;4.53;;;2.03;;
58615;SDS011;44385;51.992;4.206;2023-07-13T14:49:23;4.65;;;2.00;;
58615;SDS011;44385;51.992;4.206;2023-07-13T14:51:50;3.58;;;2.08;;
58615;SDS011;44385;51.992;4.206;2023-07-13T14:54:16;5.38;;;2.58;;
58615;SDS011;44385;51.992;4.206;2023-07-13T14:56:44;5.22;;;1.80;;
58615;SDS011;44385;51.992;4.206;2023-07-13T14:59:10;4.30;;;1.70;;
58615;SDS011;44385;51.992;4.206;2023-07-13T15:01:41;6.65;;;1.70;;
58615;SDS011;44385;51.992;4.206;2023-07-13T15:04:10;4.18;;;2.00;;
58615;SDS011;44385;51.992;4.206;2023-07-13T15:06:53;6.03;;;2.40;;
58615;SDS011;44385;51.992;4.206;2023-07-13T15:09:19;5.38;;;3.45;;